Terminal Aerodrome Forecast
Issued by NWS

Home | Current Version | Previous Version | Graphics & Text | Print | Product List | Glossary On
Versions: 1 2 3 4 5 6 7 8 9 10 11 12 13 14 15
000
FTUS43 KICT 030536
TAFRSL
TAF
KRSL 030536Z 0306/0406 19020G28KT 5SM BR OVC014
     FM031100 24020G28KT P6SM SCT020
     FM031600 35022G32KT P6SM SCT025
      TEMPO 0316/0320 BKN025
     FM032300 36012KT P6SM SCT250=

USA.gov is the U.S. government's official web portal to all federal, state and local government web resources and services.